createdAt,value
2023-05-01T00:01:30.654Z,102079.81
2023-05-01T00:03:57.324Z,102071.19
2023-05-01T00:06:24.164Z,102082.75
2023-05-01T00:08:50.692Z,102073.13
2023-05-01T00:11:17.386Z,102068.25
2023-05-01T00:13:43.845Z,102068.53
2023-05-01T00:16:11.476Z,102069.50
2023-05-01T00:18:38.631Z,102059.19
2023-05-01T00:21:05.537Z,102051.81
2023-05-01T00:23:32.183Z,102055.59
2023-05-01T00:25:58.711Z,102053.22
2023-05-01T00:28:25.264Z,102054.34
2023-05-01T00:30:52.224Z,102049.03
2023-05-01T00:33:18.971Z,102034.28
2023-05-01T00:35:46.249Z,102041.94
2023-05-01T00:38:12.980Z,102038.44
2023-05-01T00:40:43.829Z,102031.22
2023-05-01T00:43:11.999Z,102036.50
2023-05-01T00:45:39.951Z,102034.84
2023-05-01T00:48:06.717Z,102023.28
2023-05-01T00:50:33.389Z,102019.94
2023-05-01T00:53:00.296Z,102020.22
2023-05-01T00:55:27.117Z,102007.00
2023-05-01T00:57:55.374Z,101994.22
2023-05-01T01:00:24.495Z,101999.22
2023-05-01T01:02:52.122Z,101987.94
2023-05-01T01:05:21.829Z,101992.28
2023-05-01T01:07:58.165Z,101997.69
2023-05-01T01:10:35.450Z,101982.78
2023-05-01T01:13:11.983Z,101991.69
2023-05-01T01:15:50.767Z,101978.63
2023-05-01T01:18:27.838Z,101974.44
2023-05-01T01:21:18.927Z,101966.66
2023-05-01T01:24:22.092Z,101969.16
2023-05-01T01:27:07.115Z,101963.88
2023-05-01T01:29:56.506Z,101954.53
2023-05-01T01:32:53.869Z,101968.47
2023-05-01T01:35:24.449Z,101959.28
2023-05-01T01:38:07.559Z,101953.03
2023-05-01T01:40:59.819Z,101949.53
2023-05-01T01:43:27.481Z,101936.19
2023-05-01T01:45:59.468Z,101929.91
2023-05-01T01:48:31.784Z,101935.22
2023-05-01T01:50:59.506Z,101923.53
2023-05-01T01:53:28.495Z,101928.69
2023-05-01T01:55:58.182Z,101920.47
2023-05-01T01:58:26.819Z,101915.19
2023-05-01T02:00:55.385Z,101918.50
2023-05-01T02:03:24.262Z,101910.84
2023-05-01T02:05:53.844Z,101916.56
2023-05-01T02:08:21.344Z,101912.94
2023-05-01T02:10:50.482Z,101899.03
2023-05-01T02:13:18.348Z,101901.84
2023-05-01T02:15:45.889Z,101898.06
2023-05-01T02:18:13.989Z,101896.28
2023-05-01T02:20:42.755Z,101890.16
2023-05-01T02:23:10.068Z,101897.25
2023-05-01T02:25:39.356Z,101882.78
2023-05-01T02:28:13.549Z,101883.34
2023-05-01T02:30:40.326Z,101885.13
2023-05-01T02:33:08.520Z,101876.66
2023-05-01T02:35:44.021Z,101878.47
2023-05-01T02:38:12.803Z,101874.16
2023-05-01T02:40:39.879Z,101880.41
2023-05-01T02:43:10.736Z,101878.47
2023-05-01T02:45:41.494Z,101870.81
2023-05-01T02:48:10.973Z,101875.81
2023-05-01T02:50:40.914Z,101867.06
2023-05-01T02:53:08.395Z,101862.31
2023-05-01T02:55:35.893Z,101857.91
2023-05-01T02:58:02.485Z,101859.41
2023-05-01T03:00:29.955Z,101857.91
2023-05-01T03:02:56.625Z,101853.44
2023-05-01T03:05:23.169Z,101851.19
2023-05-01T03:07:51.239Z,101850.09
2023-05-01T03:10:17.827Z,101844.66
2023-05-01T03:12:44.414Z,101830.34
2023-05-01T03:15:12.632Z,101841.44
2023-05-01T03:17:39.694Z,101837.44
2023-05-01T03:20:07.173Z,101835.47
2023-05-01T03:22:33.720Z,101830.88
2023-05-01T03:25:00.679Z,101818.66
2023-05-01T03:27:27.539Z,101818.19
2023-05-01T03:29:54.246Z,101825.56
2023-05-01T03:32:21.017Z,101820.28
2023-05-01T03:34:47.767Z,101816.38
2023-05-01T03:37:15.143Z,101806.78
2023-05-01T03:39:41.873Z,101814.13
2023-05-01T03:42:08.345Z,101807.88
2023-05-01T03:44:34.854Z,101812.56
2023-05-01T03:47:01.837Z,101802.97
2023-05-01T03:49:28.846Z,101797.41
2023-05-01T03:51:55.342Z,101800.84
2023-05-01T03:54:21.900Z,101804.88
2023-05-01T03:56:48.375Z,101803.50
2023-05-01T03:59:15.023Z,101802.34
2023-05-01T04:01:41.621Z,101794.56
2023-05-01T04:04:08.289Z,101788.31
2023-05-01T04:06:35.323Z,101793.16
2023-05-01T04:09:02.612Z,101798.31
2023-05-01T04:11:29.115Z,101792.16
2023-05-01T04:13:55.582Z,101795.22
2023-05-01T04:16:22.158Z,101788.66
2023-05-01T04:18:48.718Z,101778.91
2023-05-01T04:21:17.674Z,101782.94
2023-05-01T04:23:44.738Z,101789.59
2023-05-01T04:26:11.221Z,101776.66
2023-05-01T04:28:37.995Z,101781.34
2023-05-01T04:31:04.574Z,101782.94
2023-05-01T04:33:31.050Z,101775.81
2023-05-01T04:35:57.549Z,101778.84
2023-05-01T04:38:24.007Z,101789.03
2023-05-01T04:40:50.677Z,101784.44
2023-05-01T04:43:17.286Z,101781.50
2023-05-01T04:45:43.739Z,101787.16
2023-05-01T04:48:10.301Z,101792.59
2023-05-01T04:50:37.649Z,101781.63
2023-05-01T04:53:04.141Z,101780.22
2023-05-01T04:55:31.229Z,101787.94
2023-05-01T04:57:57.829Z,101786.97
2023-05-01T05:00:24.392Z,101783.72
2023-05-01T05:02:51.173Z,101782.56
2023-05-01T05:05:17.696Z,101783.94
2023-05-01T05:07:44.211Z,101788.63
2023-05-01T05:10:10.805Z,101788.88
2023-05-01T05:12:37.288Z,101777.69
2023-05-01T05:15:03.946Z,101777.41
2023-05-01T05:17:30.664Z,101782.59
2023-05-01T05:19:57.382Z,101783.16
2023-05-01T05:22:25.986Z,101780.19
2023-05-01T05:24:59.994Z,101781.91
2023-05-01T05:27:26.759Z,101778.63
2023-05-01T05:29:53.369Z,101787.81
2023-05-01T05:32:20.175Z,101787.34
2023-05-01T05:34:47.458Z,101780.72
2023-05-01T05:37:13.959Z,101783.06
2023-05-01T05:39:40.502Z,101776.97
2023-05-01T05:42:07.057Z,101776.47
2023-05-01T05:44:35.988Z,101768.22
2023-05-01T05:47:02.534Z,101772.91
2023-05-01T05:49:29.143Z,101763.97
2023-05-01T05:51:56.160Z,101753.91
2023-05-01T05:54:22.685Z,101769.53
2023-05-01T05:56:49.129Z,101760.44
2023-05-01T05:59:17.391Z,101761.47
2023-05-01T06:01:44.318Z,101750.22
2023-05-01T06:04:11.922Z,101754.59
2023-05-01T06:06:39.210Z,101755.94
2023-05-01T06:09:08.232Z,101755.63
2023-05-01T06:11:34.686Z,101757.94
2023-05-01T06:14:02.775Z,101747.56
2023-05-01T06:16:29.681Z,101748.38
2023-05-01T06:18:56.431Z,101754.69
2023-05-01T06:21:22.991Z,101758.75
2023-05-01T06:23:49.461Z,101752.81
2023-05-01T06:26:15.939Z,101750.31
2023-05-01T06:28:42.425Z,101741.03
2023-05-01T06:31:08.992Z,101747.91
2023-05-01T06:33:35.549Z,101741.59
2023-05-01T06:36:02.420Z,101744.94
2023-05-01T06:38:28.980Z,101738.97
2023-05-01T06:40:55.700Z,101744.44
2023-05-01T06:43:22.218Z,101745.78
2023-05-01T06:45:48.923Z,101739.66
2023-05-01T06:48:15.495Z,101743.44
2023-05-01T06:50:42.075Z,101741.66
2023-05-01T06:53:08.582Z,101735.81
2023-05-01T06:55:35.951Z,101744.13
2023-05-01T06:58:04.856Z,101741.31
2023-05-01T07:00:36.623Z,101740.66
2023-05-01T07:03:04.094Z,101741.31
2023-05-01T07:05:30.582Z,101736.00
2023-05-01T07:08:01.331Z,101736.00
2023-05-01T07:10:29.207Z,101739.00
2023-05-01T07:12:55.696Z,101746.13
2023-05-01T07:15:22.368Z,101731.84
2023-05-01T07:17:50.446Z,101729.50
2023-05-01T07:20:17.107Z,101727.84
2023-05-01T07:22:44.228Z,101728.66
2023-05-01T07:25:10.803Z,101729.47
2023-05-01T07:27:37.315Z,101733.59
2023-05-01T07:30:05.242Z,101726.13
2023-05-01T07:32:33.128Z,101728.22
2023-05-01T07:35:00.000Z,101729.03
2023-05-01T07:37:27.071Z,101736.84
2023-05-01T07:39:53.604Z,101736.16
2023-05-01T07:42:20.152Z,101732.84
2023-05-01T07:44:46.865Z,101730.81
2023-05-01T07:47:13.525Z,101728.69
2023-05-01T07:49:40.166Z,101723.38
2023-05-01T07:52:09.706Z,101722.19
2023-05-01T07:54:36.429Z,101732.81
2023-05-01T07:57:03.674Z,101732.66
2023-05-01T07:59:30.337Z,101731.44
2023-05-01T08:01:56.975Z,101732.94
2023-05-01T08:04:23.552Z,101731.09
2023-05-01T08:06:51.533Z,101730.28
2023-05-01T08:09:18.095Z,101724.78
2023-05-01T08:11:44.620Z,101741.72
2023-05-01T08:14:11.373Z,101734.03
2023-05-01T08:16:38.173Z,101731.22
2023-05-01T08:19:04.712Z,101734.84
2023-05-01T08:21:31.381Z,101731.53
2023-05-01T08:23:57.820Z,101738.63
2023-05-01T08:26:24.329Z,101739.44
2023-05-01T08:28:51.081Z,101740.09
2023-05-01T08:31:19.302Z,101732.91
2023-05-01T08:33:45.906Z,101740.03
2023-05-01T08:36:12.624Z,101738.31
2023-05-01T08:38:39.123Z,101722.13
2023-05-01T08:41:06.180Z,101731.09
2023-05-01T08:43:33.123Z,101729.56
2023-05-01T08:46:04.906Z,101743.34
2023-05-01T08:48:35.317Z,101736.00
2023-05-01T08:51:03.566Z,101729.50
2023-05-01T08:53:33.292Z,101735.59
2023-05-01T08:56:00.578Z,101736.88
2023-05-01T08:58:28.068Z,101732.03
2023-05-01T09:00:57.488Z,101729.50
2023-05-01T09:03:25.171Z,101733.91
2023-05-01T09:05:53.425Z,101730.38
2023-05-01T09:08:20.859Z,101733.97
2023-05-01T09:10:49.422Z,101728.63
2023-05-01T09:13:16.129Z,101740.53
2023-05-01T09:15:42.676Z,101736.13
2023-05-01T09:18:09.465Z,101721.13
2023-05-01T09:20:37.921Z,101731.78
2023-05-01T09:23:05.077Z,101740.25
2023-05-01T09:25:31.543Z,101730.22
2023-05-01T09:27:58.166Z,101740.94
2023-05-01T09:30:35.392Z,101728.13
2023-05-01T09:33:06.753Z,101733.19
2023-05-01T09:35:47.863Z,101731.91
2023-05-01T09:38:21.583Z,101735.28
2023-05-01T09:40:48.614Z,101739.78
2023-05-01T09:43:25.650Z,101740.16
2023-05-01T09:46:10.483Z,101738.28
2023-05-01T09:48:38.013Z,101742.00
2023-05-01T09:51:20.696Z,101750.16
2023-05-01T09:53:47.166Z,101746.66
2023-05-01T09:56:14.867Z,101735.75
2023-05-01T09:58:41.480Z,101737.03
2023-05-01T10:01:08.645Z,101743.03
2023-05-01T10:03:35.511Z,101737.94
2023-05-01T10:06:03.887Z,101734.69
2023-05-01T10:08:46.915Z,101739.91
2023-05-01T10:11:13.538Z,101738.50
2023-05-01T10:13:40.462Z,101742.00
2023-05-01T10:16:08.526Z,101727.91
2023-05-01T10:18:35.720Z,101731.25
2023-05-01T10:21:03.532Z,101738.28
2023-05-01T10:23:30.032Z,101728.50
2023-05-01T10:25:58.595Z,101733.97
2023-05-01T10:28:28.828Z,101723.72
2023-05-01T10:30:57.493Z,101727.56
2023-05-01T10:33:25.234Z,101742.44
2023-05-01T10:36:00.789Z,101743.06
2023-05-01T10:38:37.669Z,101736.72
2023-05-01T10:41:06.228Z,101747.47
2023-05-01T10:43:32.915Z,101745.63
2023-05-01T10:46:09.238Z,101747.94
2023-05-01T10:48:42.282Z,101747.38
2023-05-01T10:51:15.647Z,101748.84
2023-05-01T10:53:43.707Z,101749.72
2023-05-01T10:56:26.473Z,101751.44
2023-05-01T10:58:52.920Z,101753.69
2023-05-01T11:01:29.471Z,101748.34
2023-05-01T11:03:56.979Z,101757.63
2023-05-01T11:06:24.157Z,101747.50
2023-05-01T11:08:50.847Z,101752.63
2023-05-01T11:11:20.071Z,101759.34
2023-05-01T11:14:05.980Z,101758.91
2023-05-01T11:16:42.112Z,101764.88
2023-05-01T11:19:11.945Z,101752.28
2023-05-01T11:21:40.660Z,101757.06
2023-05-01T11:24:08.037Z,101755.41
2023-05-01T11:26:41.732Z,101756.91
2023-05-01T11:29:10.583Z,101751.38
2023-05-01T11:31:38.174Z,101748.72
2023-05-01T11:34:07.001Z,101751.03
2023-05-01T11:36:52.392Z,101755.34
2023-05-01T11:39:19.505Z,101753.94
2023-05-01T11:41:46.968Z,101744.88
2023-05-01T11:44:17.617Z,101747.78
2023-05-01T11:46:44.523Z,101749.84
2023-05-01T11:49:11.270Z,101740.16
2023-05-01T11:51:37.846Z,101733.75
2023-05-01T11:54:07.326Z,101738.28
2023-05-01T11:56:35.397Z,101735.56
2023-05-01T11:59:16.832Z,101733.25
2023-05-01T12:01:47.037Z,101734.91
2023-05-01T12:04:24.269Z,101738.97
2023-05-01T12:06:51.270Z,101736.66
2023-05-01T12:09:20.285Z,101743.88
2023-05-01T12:11:52.399Z,101739.78
2023-05-01T12:14:21.647Z,101741.44
2023-05-01T12:16:48.600Z,101744.53
2023-05-01T12:19:15.818Z,101748.94
2023-05-01T12:21:42.554Z,101751.06
2023-05-01T12:24:10.465Z,101752.75
2023-05-01T12:26:37.808Z,101760.63
2023-05-01T12:29:06.714Z,101765.97
2023-05-01T12:31:33.991Z,101772.53
2023-05-01T12:34:07.569Z,101764.22
2023-05-01T12:36:36.078Z,101779.47
2023-05-01T12:39:07.670Z,101778.06
2023-05-01T12:41:36.709Z,101767.50
2023-05-01T12:44:16.786Z,101769.09
2023-05-01T12:46:44.667Z,101777.53
2023-05-01T12:49:21.072Z,101769.25
2023-05-01T12:51:52.203Z,101766.81
2023-05-01T12:54:22.861Z,101769.47
2023-05-01T12:56:55.005Z,101771.56
2023-05-01T12:59:26.299Z,101769.47
2023-05-01T13:02:07.447Z,101773.75
2023-05-01T13:04:35.173Z,101765.88
2023-05-01T13:07:02.651Z,101754.28
2023-05-01T13:09:32.546Z,101762.06
2023-05-01T13:12:05.901Z,101769.72
2023-05-01T13:14:43.350Z,101758.75
2023-05-01T13:17:11.767Z,101763.22
2023-05-01T13:19:39.530Z,101755.75
2023-05-01T13:22:06.536Z,101760.72
2023-05-01T13:24:40.990Z,101766.28
2023-05-01T13:27:11.842Z,101764.41
2023-05-01T13:29:39.612Z,101759.56
2023-05-01T13:32:10.036Z,101762.38
2023-05-01T13:34:37.719Z,101762.13
2023-05-01T13:37:04.147Z,101759.41
2023-05-01T13:39:30.722Z,101772.16
2023-05-01T13:41:57.156Z,101766.91
2023-05-01T13:44:23.657Z,101780.47
2023-05-01T13:46:50.355Z,101771.88
2023-05-01T13:49:22.306Z,101777.03
2023-05-01T13:51:48.894Z,101765.44
2023-05-01T13:54:15.696Z,101771.41
2023-05-01T13:56:42.271Z,101776.41
2023-05-01T13:59:09.338Z,101774.09
2023-05-01T14:01:46.254Z,101774.34
2023-05-01T14:04:18.580Z,101768.84
2023-05-01T14:06:47.057Z,101771.16
2023-05-01T14:09:17.337Z,101769.38
2023-05-01T14:11:46.805Z,101769.91
2023-05-01T14:14:18.251Z,101759.91
2023-05-01T14:16:49.147Z,101768.53
2023-05-01T14:19:20.112Z,101766.00
2023-05-01T14:21:47.017Z,101762.84
2023-05-01T14:24:17.823Z,101763.31
2023-05-01T14:26:47.780Z,101752.72
2023-05-01T14:29:22.945Z,101755.84
2023-05-01T14:31:49.581Z,101752.13
2023-05-01T14:34:18.027Z,101746.31
2023-05-01T14:36:44.560Z,101740.22
2023-05-01T14:39:11.080Z,101737.19
2023-05-01T14:41:42.300Z,101733.28
2023-05-01T14:44:39.393Z,101742.47
2023-05-01T14:47:09.487Z,101724.25
2023-05-01T14:49:36.056Z,101728.59
2023-05-01T14:52:02.726Z,101722.22
2023-05-01T14:54:33.169Z,101734.19
2023-05-01T14:57:03.756Z,101735.63
2023-05-01T14:59:30.302Z,101743.03
2023-05-01T15:01:57.097Z,101734.69
2023-05-01T15:04:24.341Z,101745.06
2023-05-01T15:06:50.934Z,101756.91
2023-05-01T15:09:17.395Z,101745.72
2023-05-01T15:11:43.840Z,101757.31
2023-05-01T15:14:10.328Z,101745.72
2023-05-01T15:16:37.446Z,101753.31
2023-05-01T15:19:03.936Z,101762.38
2023-05-01T15:21:31.651Z,101758.22
2023-05-01T15:23:58.157Z,101755.53
2023-05-01T15:26:24.757Z,101757.19
2023-05-01T15:28:51.333Z,101758.81
2023-05-01T15:31:19.314Z,101759.00
2023-05-01T15:33:46.297Z,101762.28
2023-05-01T15:36:13.259Z,101760.84
2023-05-01T15:38:39.721Z,101758.81
2023-05-01T15:41:06.172Z,101763.13
2023-05-01T15:43:32.653Z,101767.13
2023-05-01T15:45:59.835Z,101762.13
2023-05-01T15:48:26.809Z,101761.41
2023-05-01T15:50:53.278Z,101774.28
2023-05-01T15:53:21.093Z,101777.13
2023-05-01T15:55:47.588Z,101781.63
2023-05-01T15:58:16.711Z,101774.53
2023-05-01T16:00:47.058Z,101779.47
2023-05-01T16:03:14.749Z,101789.75
2023-05-01T16:05:45.665Z,101783.53
2023-05-01T16:08:12.860Z,101788.06
2023-05-01T16:10:40.582Z,101779.97
2023-05-01T16:13:07.446Z,101794.97
2023-05-01T16:15:34.447Z,101800.13
2023-05-01T16:18:04.017Z,101797.84
2023-05-01T16:20:35.579Z,101795.38
2023-05-01T16:23:02.384Z,101806.88
2023-05-01T16:25:28.932Z,101795.94
2023-05-01T16:27:55.568Z,101792.00
2023-05-01T16:30:24.600Z,101803.47
2023-05-01T16:32:51.119Z,101809.91
2023-05-01T16:35:18.343Z,101806.41
2023-05-01T16:37:45.102Z,101821.25
2023-05-01T16:40:16.841Z,101817.69
2023-05-01T16:42:49.274Z,101831.56
2023-05-01T16:45:15.898Z,101825.06
2023-05-01T16:47:42.419Z,101833.88
2023-05-01T16:50:09.970Z,101838.31
2023-05-01T16:52:36.679Z,101838.53
2023-05-01T16:55:03.716Z,101843.78
2023-05-01T16:57:30.274Z,101841.88
2023-05-01T16:59:56.908Z,101846.31
2023-05-01T17:02:23.509Z,101845.25
2023-05-01T17:04:50.067Z,101846.81
2023-05-01T17:07:16.720Z,101848.84
2023-05-01T17:09:43.219Z,101845.91
2023-05-01T17:12:09.986Z,101838.91
2023-05-01T17:14:36.456Z,101843.97
2023-05-01T17:17:03.634Z,101844.13
2023-05-01T17:19:31.581Z,101853.63
2023-05-01T17:21:58.415Z,101854.28
2023-05-01T17:24:25.750Z,101853.44
2023-05-01T17:26:52.579Z,101858.78
2023-05-01T17:29:19.043Z,101855.94
2023-05-01T17:31:45.584Z,101858.34
2023-05-01T17:34:12.063Z,101856.50
2023-05-01T17:36:38.546Z,101858.34
2023-05-01T17:39:05.135Z,101857.13
2023-05-01T17:41:31.638Z,101867.81
2023-05-01T17:43:58.143Z,101859.00
2023-05-01T17:46:24.877Z,101859.47
2023-05-01T17:48:51.438Z,101859.91
2023-05-01T17:51:18.136Z,101866.16
2023-05-01T17:53:44.623Z,101872.09
2023-05-01T17:56:11.345Z,101879.06
2023-05-01T17:58:38.052Z,101876.81
2023-05-01T18:01:04.981Z,101876.47
2023-05-01T18:03:32.747Z,101884.03
2023-05-01T18:06:00.994Z,101888.75
2023-05-01T18:08:27.575Z,101887.47
2023-05-01T18:10:54.033Z,101887.56
2023-05-01T18:13:27.541Z,101884.03
2023-05-01T18:15:57.231Z,101894.56
2023-05-01T18:18:23.975Z,101906.00
2023-05-01T18:20:50.581Z,101903.63
2023-05-01T18:23:20.174Z,101903.81
2023-05-01T18:25:46.677Z,101912.25
2023-05-01T18:28:13.685Z,101907.38
2023-05-01T18:30:40.130Z,101918.44
2023-05-01T18:33:06.698Z,101928.63
2023-05-01T18:35:33.573Z,101925.38
2023-05-01T18:38:00.028Z,101928.91
2023-05-01T18:40:27.230Z,101928.63
2023-05-01T18:42:53.812Z,101930.50
2023-05-01T18:45:20.314Z,101939.88
2023-05-01T18:47:46.939Z,101939.59
2023-05-01T18:50:13.656Z,101944.28
2023-05-01T18:52:41.740Z,101938.84
2023-05-01T18:55:11.291Z,101941.00
2023-05-01T18:57:37.958Z,101948.38
2023-05-01T19:00:05.807Z,101945.59
2023-05-01T19:02:32.321Z,101952.47
2023-05-01T19:04:58.963Z,101958.34
2023-05-01T19:07:26.514Z,101956.84
2023-05-01T19:09:53.174Z,101961.38
2023-05-01T19:12:19.630Z,101967.22
2023-05-01T19:14:46.248Z,101973.25
2023-05-01T19:17:12.704Z,101972.47
2023-05-01T19:19:39.184Z,101967.50
2023-05-01T19:22:06.326Z,101972.50
2023-05-01T19:24:32.907Z,101960.69
2023-05-01T19:26:59.466Z,101970.53
2023-05-01T19:29:26.106Z,101972.22
2023-05-01T19:31:52.684Z,101978.69
2023-05-01T19:34:20.278Z,101977.59
2023-05-01T19:36:46.822Z,101987.94
2023-05-01T19:39:13.353Z,101977.31
2023-05-01T19:41:39.856Z,101990.31
2023-05-01T19:44:06.665Z,101987.34
2023-05-01T19:46:33.230Z,101992.34
2023-05-01T19:48:59.725Z,102000.69
2023-05-01T19:51:26.575Z,102003.53
2023-05-01T19:53:53.116Z,102008.56
2023-05-01T19:56:19.588Z,102017.03
2023-05-01T19:58:46.340Z,102012.56
2023-05-01T20:01:13.182Z,102025.03
2023-05-01T20:03:39.889Z,102031.00
2023-05-01T20:06:07.514Z,102012.69
2023-05-01T20:08:34.112Z,102029.53
2023-05-01T20:11:01.761Z,102037.66
2023-05-01T20:13:28.397Z,102039.97
2023-05-01T20:15:55.320Z,102048.63
2023-05-01T20:18:22.166Z,102058.44
2023-05-01T20:20:48.759Z,102061.22
2023-05-01T20:23:17.314Z,102044.41
2023-05-01T20:25:43.888Z,102056.25
2023-05-01T20:28:12.938Z,102059.56
2023-05-01T20:30:41.081Z,102062.75
2023-05-01T20:33:10.627Z,102061.91
2023-05-01T20:35:37.643Z,102063.09
2023-05-01T20:38:07.162Z,102070.22
2023-05-01T20:40:33.824Z,102072.72
2023-05-01T20:43:00.724Z,102064.88
2023-05-01T20:45:29.073Z,102075.22
2023-05-01T20:47:56.244Z,102076.72
2023-05-01T20:50:23.213Z,102073.56
2023-05-01T20:52:49.993Z,102077.75
2023-05-01T20:55:16.578Z,102080.41
2023-05-01T20:57:43.032Z,102077.56
2023-05-01T21:00:10.088Z,102079.06
2023-05-01T21:02:41.333Z,102085.38
2023-05-01T21:05:10.278Z,102081.22
2023-05-01T21:07:38.119Z,102079.06
2023-05-01T21:10:10.314Z,102084.38
2023-05-01T21:12:37.667Z,102089.97
2023-05-01T21:15:04.779Z,102101.75
2023-05-01T21:17:33.584Z,102098.91
2023-05-01T21:20:00.432Z,102098.41
2023-05-01T21:22:27.761Z,102091.75
2023-05-01T21:24:56.695Z,102093.19
2023-05-01T21:27:24.664Z,102105.69
2023-05-01T21:30:02.332Z,102098.34
2023-05-01T21:32:32.548Z,102096.50
2023-05-01T21:35:02.646Z,102096.34
2023-05-01T21:37:29.559Z,102102.66
2023-05-01T21:39:59.546Z,102106.00
2023-05-01T21:42:31.202Z,102101.66
2023-05-01T21:44:59.308Z,102103.34
2023-05-01T21:47:26.347Z,102106.81
2023-05-01T21:49:56.864Z,102103.34
2023-05-01T21:52:23.501Z,102112.97
2023-05-01T21:54:50.166Z,102122.09
2023-05-01T21:57:16.629Z,102119.28
2023-05-01T21:59:45.011Z,102117.81
2023-05-01T22:02:12.227Z,102112.81
2023-05-01T22:04:38.931Z,102119.28
2023-05-01T22:07:06.164Z,102120.97
2023-05-01T22:09:33.257Z,102135.25
2023-05-01T22:11:59.809Z,102126.28
2023-05-01T22:14:33.603Z,102122.63
2023-05-01T22:17:06.745Z,102130.44
2023-05-01T22:19:33.343Z,102129.09
2023-05-01T22:21:59.886Z,102128.72
2023-05-01T22:24:26.399Z,102125.72
2023-05-01T22:26:53.095Z,102128.91
2023-05-01T22:29:19.536Z,102130.88
2023-05-01T22:31:46.362Z,102133.53
2023-05-01T22:34:12.938Z,102137.03
2023-05-01T22:36:39.570Z,102137.03
2023-05-01T22:39:06.092Z,102141.16
2023-05-01T22:41:32.901Z,102152.78
2023-05-01T22:43:59.365Z,102149.75
2023-05-01T22:46:25.906Z,102155.91
2023-05-01T22:48:52.547Z,102167.06
2023-05-01T22:51:18.997Z,102167.22
2023-05-01T22:53:45.470Z,102174.06
2023-05-01T22:56:11.920Z,102166.72
2023-05-01T22:58:38.566Z,102174.69
2023-05-01T23:01:05.144Z,102180.00
2023-05-01T23:03:33.184Z,102174.81
2023-05-01T23:06:00.934Z,102174.78
2023-05-01T23:08:28.197Z,102178.06
2023-05-01T23:10:54.823Z,102189.84
2023-05-01T23:13:23.388Z,102191.13
2023-05-01T23:15:50.137Z,102200.09
2023-05-01T23:18:30.034Z,102196.75
2023-05-01T23:20:56.777Z,102209.38
2023-05-01T23:23:29.660Z,102209.69
2023-05-01T23:25:56.398Z,102213.09
2023-05-01T23:28:24.924Z,102220.38
2023-05-01T23:31:32.103Z,102219.88
2023-05-01T23:34:02.176Z,102220.31
2023-05-01T23:36:29.055Z,102214.59
2023-05-01T23:38:55.796Z,102222.38
2023-05-01T23:41:24.521Z,102222.38
2023-05-01T23:43:51.202Z,102219.84
2023-05-01T23:46:17.796Z,102225.63
2023-05-01T23:48:44.395Z,102225.25
2023-05-01T23:51:10.998Z,102231.25
2023-05-01T23:53:37.484Z,102216.13
2023-05-01T23:56:04.205Z,102221.31
2023-05-01T23:58:30.673Z,102229.78
